Time;durP1;ratioP1;P1;durP2;ratioP2;P2;SDS_P1;SDS_P2;PMS_P1;PMS_P2;Temp;Humidity;BMP_temperature;BMP_pressure;BME280_temperature;BME280_humidity;BME280_pressure;Samples;Min_cycle;Max_cycle;Signal;HPM_P1;HPM_P2
2022/12/21 00:00:08;;;;;;;5.95;2.25;;;;;;;;;;5054441;28;20510;-83
2022/12/21 00:02:34;;;;;;;4.05;1.92;;;;;;;;;;5035464;28;20099;-83
2022/12/21 00:05:00;;;;;;;2.90;2.35;;;;;;;;;;5036159;28;20120;-84
2022/12/21 00:07:25;;;;;;;6.28;2.05;;;;;;;;;;5052783;28;20060;-84
2022/12/21 00:09:50;;;;;;;3.47;1.90;;;;;;;;;;5051192;28;20445;-82
2022/12/21 00:12:16;;;;;;;3.03;1.80;;;;;;;;;;5051239;28;20028;-83
2022/12/21 00:21:55;;;;;;;4.75;2.17;;;;;;;;;;5033788;28;20113;-83
2022/12/21 00:24:21;;;;;;;2.53;2.08;;;;;;;;;;5033171;28;20055;-84
2022/12/21 00:30:08;;;;;;;4.93;2.40;;;;;;;;;;5024381;28;20036;-83
2022/12/21 00:32:34;;;;;;;4.28;2.47;;;;;;;;;;5002229;28;20093;-84
2022/12/21 00:34:59;;;;;;;7.15;2.50;;;;;;;;;;5020044;28;20053;-84
2022/12/21 00:37:24;;;;;;;3.47;2.10;;;;;;;;;;5027274;28;20455;-86
2022/12/21 00:39:50;;;;;;;4.25;2.70;;;;;;;;;;5030154;28;20044;-82
2022/12/21 00:42:15;;;;;;;5.00;2.20;;;;;;;;;;5030237;28;20079;-83
2022/12/21 00:44:40;;;;;;;5.82;2.40;;;;;;;;;;5007672;28;20094;-86
2022/12/21 00:47:06;;;;;;;4.05;2.50;;;;;;;;;;5024315;28;20053;-83
2022/12/21 00:49:31;;;;;;;4.20;1.88;;;;;;;;;;5032834;28;20033;-86
2022/12/21 00:51:59;;;;;;;4.55;2.20;;;;;;;;;;5036347;28;20047;-85
2022/12/21 00:54:25;;;;;;;3.33;1.80;;;;;;;;;;5022739;28;20041;-86
2022/12/21 00:56:51;;;;;;;4.72;1.45;;;;;;;;;;5025383;28;20049;-84
2022/12/21 00:59:17;;;;;;;3.38;1.75;;;;;;;;;;5024498;28;20036;-84
2022/12/21 01:01:45;;;;;;;4.20;1.50;;;;;;;;;;5031504;28;20022;-84
2022/12/21 01:04:10;;;;;;;3.33;1.75;;;;;;;;;;5023794;28;20058;-84
2022/12/21 01:06:36;;;;;;;2.17;1.23;;;;;;;;;;5021574;28;20037;-84
2022/12/21 01:09:05;;;;;;;2.08;1.85;;;;;;;;;;5020547;28;20022;-84
2022/12/21 01:11:31;;;;;;;2.55;1.48;;;;;;;;;;5030015;28;20030;-84
2022/12/21 01:13:57;;;;;;;2.28;1.40;;;;;;;;;;5037908;28;20028;-84
2022/12/21 01:16:34;;;;;;;3.55;1.70;;;;;;;;;;5036847;28;20021;-83
2022/12/21 01:19:40;;;;;;;1.40;1.30;;;;;;;;;;5017261;28;20116;-84
2022/12/21 01:30:20;;;;;;;1.40;1.30;;;;;;;;;;5057125;28;20057;-84
2022/12/21 01:32:45;;;;;;;3.38;1.60;;;;;;;;;;5034910;28;20079;-85
2022/12/21 01:35:10;;;;;;;1.60;1.50;;;;;;;;;;5056794;28;20060;-84
2022/12/21 01:38:23;;;;;;;2.38;1.67;;;;;;;;;;5039415;28;20126;-86
2022/12/21 01:40:48;;;;;;;1.80;1.30;;;;;;;;;;5057387;28;20040;-87
2022/12/21 01:43:38;;;;;;;1.42;1.30;;;;;;;;;;5031066;28;20060;-86
2022/12/21 01:46:08;;;;;;;2.92;1.45;;;;;;;;;;5032810;28;20072;-85
2022/12/21 01:48:39;;;;;;;2.00;1.33;;;;;;;;;;5066618;28;20009;-84
2022/12/21 01:51:06;;;;;;;3.45;1.48;;;;;;;;;;5057888;28;20029;-82
2022/12/21 01:53:36;;;;;;;1.90;1.67;;;;;;;;;;5064911;28;20032;-86
2022/12/21 01:56:05;;;;;;;2.70;1.67;;;;;;;;;;5053806;28;20032;-86
2022/12/21 01:58:31;;;;;;;2.22;1.80;;;;;;;;;;5055012;28;20035;-85
2022/12/21 02:00:59;;;;;;;4.13;2.10;;;;;;;;;;5046426;28;20021;-83
2022/12/21 02:03:32;;;;;;;2.67;2.03;;;;;;;;;;5047428;28;20530;-84
2022/12/21 02:06:07;;;;;;;3.60;2.08;;;;;;;;;;5056781;28;20559;-85
2022/12/21 02:08:36;;;;;;;7.15;2.40;;;;;;;;;;5059562;28;20033;-87
2022/12/21 02:11:03;;;;;;;10.20;2.40;;;;;;;;;;5038096;28;20025;-84
2022/12/21 02:13:28;;;;;;;4.28;2.67;;;;;;;;;;5041343;28;20036;-87
2022/12/21 02:16:00;;;;;;;2.72;1.90;;;;;;;;;;5039004;28;20028;-85
2022/12/21 02:18:34;;;;;;;2.45;1.65;;;;;;;;;;5041690;28;20029;-85
2022/12/21 02:21:22;;;;;;;3.45;2.10;;;;;;;;;;5056414;28;20063;-85
2022/12/21 02:24:21;;;;;;;5.38;2.53;;;;;;;;;;5054895;28;20032;-85
2022/12/21 02:27:07;;;;;;;2.75;1.83;;;;;;;;;;5047317;28;20049;-86
2022/12/21 02:29:54;;;;;;;4.50;2.00;;;;;;;;;;5052072;28;20082;-87
2022/12/21 02:32:31;;;;;;;4.22;2.30;;;;;;;;;;5047078;28;20460;-87
2022/12/21 02:35:18;;;;;;;2.15;1.40;;;;;;;;;;5040233;28;20032;-87
2022/12/21 02:37:56;;;;;;;3.17;1.80;;;;;;;;;;5055947;28;21824;-85
2022/12/21 02:41:08;;;;;;;2.30;1.55;;;;;;;;;;5030285;28;20476;-85
2022/12/21 02:46:31;;;;;;;2.15;1.65;;;;;;;;;;5054422;28;20043;-87
2022/12/21 02:49:05;;;;;;;2.60;1.65;;;;;;;;;;5062945;28;20063;-86
2022/12/21 02:51:43;;;;;;;3.63;1.80;;;;;;;;;;5052141;28;20044;-87
2022/12/21 02:54:27;;;;;;;3.20;1.85;;;;;;;;;;5038586;28;20052;-87
2022/12/21 02:56:53;;;;;;;6.05;1.33;;;;;;;;;;5039041;28;20421;-85
2022/12/21 02:59:23;;;;;;;1.35;1.25;;;;;;;;;;5048441;28;20036;-83
2022/12/21 03:02:07;;;;;;;1.33;1.23;;;;;;;;;;5037823;28;20025;-84
2022/12/21 03:04:56;;;;;;;2.05;1.42;;;;;;;;;;5042281;28;20029;-83
2022/12/21 03:07:43;;;;;;;6.22;2.15;;;;;;;;;;5033211;28;20465;-84
2022/12/21 03:10:30;;;;;;;2.13;1.30;;;;;;;;;;5040020;28;20413;-84
2022/12/21 03:13:17;;;;;;;1.92;1.63;;;;;;;;;;5057300;28;20037;-84
2022/12/21 03:16:11;;;;;;;3.10;2.10;;;;;;;;;;5057038;28;20017;-84
2022/12/21 03:19:14;;;;;;;3.72;2.20;;;;;;;;;;5039671;28;20439;-83
2022/12/21 03:21:46;;;;;;;4.35;3.00;;;;;;;;;;5039156;28;20033;-84
2022/12/21 03:24:43;;;;;;;7.32;3.28;;;;;;;;;;5057614;28;20029;-84
2022/12/21 03:27:20;;;;;;;5.60;2.55;;;;;;;;;;5039684;28;20033;-84
2022/12/21 03:29:53;;;;;;;5.60;3.03;;;;;;;;;;5057285;28;20048;-83
2022/12/21 03:32:30;;;;;;;4.50;3.03;;;;;;;;;;5057657;28;20021;-84
2022/12/21 03:34:57;;;;;;;4.18;2.95;;;;;;;;;;5038829;28;20032;-84
2022/12/21 03:37:37;;;;;;;1.80;1.50;;;;;;;;;;5034987;28;20087;-87
2022/12/21 03:40:10;;;;;;;3.55;1.65;;;;;;;;;;5047704;28;20036;-83
2022/12/21 03:42:40;;;;;;;2.33;1.58;;;;;;;;;;5049273;28;20063;-87
2022/12/21 03:45:17;;;;;;;3.00;1.45;;;;;;;;;;5047912;28;20040;-86
2022/12/21 03:47:57;;;;;;;1.35;1.25;;;;;;;;;;5043541;28;20052;-86
2022/12/21 03:50:28;;;;;;;1.70;1.60;;;;;;;;;;5048173;28;20040;-85
2022/12/21 03:53:05;;;;;;;1.60;1.42;;;;;;;;;;5054352;28;20419;-85
2022/12/21 03:58:07;;;;;;;1.60;1.50;;;;;;;;;;5067598;22;20045;-88
2022/12/21 04:00:43;;;;;;;2.35;1.25;;;;;;;;;;4996128;28;20026;-88
2022/12/21 04:03:22;;;;;;;1.30;1.20;;;;;;;;;;5008204;28;20056;-88
2022/12/21 04:05:57;;;;;;;2.47;1.40;;;;;;;;;;5015411;28;20026;-88
2022/12/21 04:08:24;;;;;;;1.27;1.23;;;;;;;;;;5032660;28;20033;-87
2022/12/21 04:10:51;;;;;;;4.50;1.65;;;;;;;;;;5015717;28;20448;-88
2022/12/21 04:13:17;;;;;;;3.45;1.52;;;;;;;;;;5034394;28;20052;-87
2022/12/21 04:21:10;;;;;;;4.07;1.20;;;;;;;;;;5034793;28;20083;-88
2022/12/21 04:29:03;;;;;;;4.78;1.30;;;;;;;;;;5040591;28;20024;-89
2022/12/21 04:31:29;;;;;;;3.88;2.05;;;;;;;;;;5035951;28;20107;-88
2022/12/21 04:33:54;;;;;;;2.67;1.58;;;;;;;;;;5043127;28;20051;-88
2022/12/21 04:39:04;;;;;;;1.15;1.10;;;;;;;;;;5042988;28;20036;-89
2022/12/21 04:41:30;;;;;;;1.52;1.40;;;;;;;;;;5025203;28;20018;-89
2022/12/21 04:43:55;;;;;;;2.03;1.50;;;;;;;;;;5043590;28;20076;-89
2022/12/21 04:46:41;;;;;;;2.05;1.30;;;;;;;;;;5042816;28;20485;-90
2022/12/21 04:56:06;;;;;;;1.48;1.02;;;;;;;;;;5013476;28;20032;-88
2022/12/21 04:58:33;;;;;;;3.67;1.30;;;;;;;;;;5041732;28;20045;-88
2022/12/21 05:01:01;;;;;;;1.50;1.40;;;;;;;;;;5044461;28;20024;-88
2022/12/21 05:03:27;;;;;;;2.45;1.60;;;;;;;;;;5042854;28;20021;-88
2022/12/21 05:05:53;;;;;;;1.65;1.25;;;;;;;;;;5027318;28;20029;-88
2022/12/21 05:08:18;;;;;;;1.20;1.10;;;;;;;;;;5026470;28;20033;-88
2022/12/21 05:10:43;;;;;;;3.28;1.95;;;;;;;;;;5018707;28;20034;-87
2022/12/21 05:13:09;;;;;;;1.80;0.90;;;;;;;;;;5043724;28;20097;-87
2022/12/21 05:15:37;;;;;;;1.33;1.13;;;;;;;;;;5043033;28;20033;-88
2022/12/21 05:18:03;;;;;;;1.48;1.10;;;;;;;;;;5026948;28;20398;-88
2022/12/21 05:20:28;;;;;;;1.42;1.33;;;;;;;;;;5025818;28;20030;-89
2022/12/21 05:22:54;;;;;;;1.33;1.23;;;;;;;;;;5028789;28;20025;-89
2022/12/21 05:25:19;;;;;;;4.55;1.40;;;;;;;;;;5028937;28;20029;-88
2022/12/21 05:27:45;;;;;;;1.00;1.00;;;;;;;;;;5027674;28;20372;-89
2022/12/21 05:30:14;;;;;;;2.47;1.17;;;;;;;;;;5045539;28;20033;-89
2022/12/21 05:32:39;;;;;;;1.40;1.30;;;;;;;;;;5027497;28;20112;-88
2022/12/21 05:35:05;;;;;;;5.00;1.10;;;;;;;;;;5024111;28;20060;-89
2022/12/21 05:37:30;;;;;;;1.95;1.38;;;;;;;;;;5024787;28;20053;-89
2022/12/21 05:40:31;;;;;;;8.40;1.30;;;;;;;;;;5031472;28;20028;-90
2022/12/21 05:42:59;;;;;;;3.25;1.33;;;;;;;;;;4988590;28;20113;-90
2022/12/21 05:45:27;;;;;;;5.43;1.52;;;;;;;;;;5031693;28;20017;-89
2022/12/21 05:48:04;;;;;;;1.50;1.33;;;;;;;;;;5021169;28;20049;-89
2022/12/21 05:50:58;;;;;;;1.38;1.27;;;;;;;;;;5021059;28;20072;-89
2022/12/21 05:53:24;;;;;;;1.55;1.45;;;;;;;;;;5038698;28;20021;-88
2022/12/21 05:56:06;;;;;;;3.60;1.17;;;;;;;;;;5019902;28;20107;-88
2022/12/21 06:05:20;;;;;;;3.05;1.30;;;;;;;;;;5028318;28;20048;-87
2022/12/21 06:07:46;;;;;;;6.05;1.40;;;;;;;;;;5033673;28;20021;-87
2022/12/21 06:10:11;;;;;;;1.77;1.27;;;;;;;;;;5035191;28;20053;-87
2022/12/21 06:12:37;;;;;;;4.25;1.63;;;;;;;;;;5018306;28;20036;-88
2022/12/21 06:15:03;;;;;;;2.97;1.67;;;;;;;;;;5017826;28;20592;-88
2022/12/21 06:17:29;;;;;;;2.42;1.33;;;;;;;;;;5017978;28;20025;-87
2022/12/21 06:19:55;;;;;;;6.57;1.60;;;;;;;;;;5036470;28;20392;-87
2022/12/21 06:22:29;;;;;;;1.85;1.60;;;;;;;;;;5036295;28;20035;-88
2022/12/21 06:24:57;;;;;;;2.63;1.60;;;;;;;;;;5018229;28;20037;-88
2022/12/21 06:27:29;;;;;;;2.70;1.70;;;;;;;;;;5018668;28;20083;-88
2022/12/21 06:29:59;;;;;;;1.60;1.50;;;;;;;;;;5038595;28;20466;-89
2022/12/21 06:32:25;;;;;;;1.98;1.35;;;;;;;;;;5018182;28;20629;-88
2022/12/21 06:35:24;;;;;;;2.42;1.50;;;;;;;;;;5033821;28;20497;-88
2022/12/21 06:37:58;;;;;;;10.68;2.60;;;;;;;;;;5029634;28;20041;-88
2022/12/21 06:40:24;;;;;;;1.65;1.52;;;;;;;;;;5034761;28;20052;-88
2022/12/21 06:42:49;;;;;;;2.05;1.77;;;;;;;;;;5034378;28;20112;-89
2022/12/21 06:45:21;;;;;;;5.22;2.17;;;;;;;;;;5024829;28;20029;-88
2022/12/21 06:48:12;;;;;;;4.18;1.67;;;;;;;;;;5034212;28;20034;-88
2022/12/21 06:50:37;;;;;;;3.58;1.65;;;;;;;;;;5029623;28;20035;-88
2022/12/21 06:53:03;;;;;;;1.77;1.65;;;;;;;;;;5035101;28;20025;-87
2022/12/21 06:55:28;;;;;;;3.20;2.03;;;;;;;;;;5034822;28;20037;-88
2022/12/21 06:57:53;;;;;;;1.95;1.85;;;;;;;;;;5019729;28;20022;-88
2022/12/21 07:00:19;;;;;;;4.32;2.10;;;;;;;;;;5035712;28;20036;-88
2022/12/21 07:02:45;;;;;;;5.93;2.15;;;;;;;;;;5017661;28;20029;-88
2022/12/21 07:05:14;;;;;;;2.15;1.70;;;;;;;;;;5035267;28;20036;-88
2022/12/21 07:08:17;;;;;;;2.88;2.10;;;;;;;;;;5018478;28;20021;-88
2022/12/21 07:14:05;;;;;;;1.73;1.40;;;;;;;;;;5029984;28;20036;-88
2022/12/21 07:17:07;;;;;;;;;;;;;;;;;;;;;
2022/12/21 07:19:35;;;;;;;4.13;1.95;;;;;;;;;;5017500;28;20559;-88
2022/12/21 07:22:27;;;;;;;3.08;1.70;;;;;;;;;;5017985;28;20026;-88
2022/12/21 07:25:28;;;;;;;8.17;1.50;;;;;;;;;;4988663;28;20111;-88
2022/12/21 07:34:51;;;;;;;4.53;1.77;;;;;;;;;;4928458;28;20062;-89
2022/12/21 07:37:41;;;;;;;1.90;1.23;;;;;;;;;;5004037;28;20038;-88
2022/12/21 07:41:03;;;;;;;1.80;1.70;;;;;;;;;;5014344;28;20567;-89
2022/12/21 07:44:03;;;;;;;1.67;1.17;;;;;;;;;;4997699;28;20052;-87
2022/12/21 07:46:45;;;;;;;7.20;1.67;;;;;;;;;;4997809;28;20034;-88
2022/12/21 07:49:22;;;;;;;1.80;1.33;;;;;;;;;;4998151;28;20111;-88
2022/12/21 07:51:51;;;;;;;1.92;1.60;;;;;;;;;;5017104;28;20037;-89
2022/12/21 07:54:20;;;;;;;1.33;1.23;;;;;;;;;;5016500;28;20151;-89
2022/12/21 07:57:06;;;;;;;3.78;1.60;;;;;;;;;;5016686;28;20373;-88
2022/12/21 08:02:33;;;;;;;1.20;1.20;;;;;;;;;;5015767;28;20504;-88
2022/12/21 08:05:09;;;;;;;1.20;1.10;;;;;;;;;;4982510;28;20077;-88
2022/12/21 08:11:19;;;;;;;2.80;1.42;;;;;;;;;;5018421;28;20030;-89
2022/12/21 08:13:58;;;;;;;4.63;1.50;;;;;;;;;;5014553;28;20030;-87
2022/12/21 08:17:21;;;;;;;;;;;;;;;;;;;;;
2022/12/21 08:20:11;;;;;;;4.15;1.85;;;;;;;;;;5017132;28;20535;-87
2022/12/21 08:23:39;;;;;;;;;;;;;;;;;;;;;
2022/12/21 08:26:43;;;;;;;1.90;1.48;;;;;;;;;;4954946;28;20043;-88
2022/12/21 08:36:11;;;;;;;4.32;1.95;;;;;;;;;;5001403;28;20084;-88
2022/12/21 08:39:08;;;;;;;6.20;2.00;;;;;;;;;;5003181;28;20042;-88
2022/12/21 08:41:34;;;;;;;1.42;1.33;;;;;;;;;;4993223;28;20029;-88
2022/12/21 08:44:06;;;;;;;2.65;1.95;;;;;;;;;;4997063;28;20125;-88
2022/12/21 08:46:39;;;;;;;;;;;;;;;;;;4998243;28;20033;-89
2022/12/21 08:55:59;;;;;;;4.28;2.90;;;;;;;;;;4937777;29;20038;-87
2022/12/21 08:58:24;;;;;;;4.20;1.73;;;;;;;;;;4921188;29;20394;-87
2022/12/21 09:00:54;;;;;;;1.80;1.65;;;;;;;;;;4933779;29;20028;-87
2022/12/21 09:03:21;;;;;;;1.42;1.30;;;;;;;;;;4960053;28;20179;-88
2022/12/21 09:05:47;;;;;;;3.22;1.60;;;;;;;;;;5008052;28;20109;-88
2022/12/21 09:08:13;;;;;;;3.40;1.73;;;;;;;;;;4999714;28;20061;-89
2022/12/21 09:10:38;;;;;;;2.10;1.60;;;;;;;;;;5004501;28;20102;-88
2022/12/21 09:13:04;;;;;;;3.10;1.77;;;;;;;;;;5020292;28;20034;-87
2022/12/21 09:15:29;;;;;;;2.65;1.55;;;;;;;;;;5006000;28;20020;-88
2022/12/21 09:17:55;;;;;;;2.65;1.67;;;;;;;;;;5003316;28;20029;-87
2022/12/21 09:20:21;;;;;;;4.15;1.17;;;;;;;;;;4998077;28;20052;-88
2022/12/21 09:22:46;;;;;;;4.30;1.40;;;;;;;;;;5003361;28;20427;-88
2022/12/21 09:25:12;;;;;;;1.25;1.15;;;;;;;;;;4998679;28;20117;-88
2022/12/21 09:27:39;;;;;;;1.35;1.17;;;;;;;;;;5008974;28;20041;-87
2022/12/21 09:30:05;;;;;;;1.20;1.10;;;;;;;;;;5016840;28;20048;-87
2022/12/21 09:32:33;;;;;;;2.53;1.40;;;;;;;;;;5000759;28;20083;-87
2022/12/21 09:34:58;;;;;;;2.75;1.60;;;;;;;;;;5001020;28;20029;-88
2022/12/21 09:37:24;;;;;;;4.22;1.33;;;;;;;;;;5018664;28;20034;-89
2022/12/21 09:39:49;;;;;;;1.92;1.25;;;;;;;;;;5001622;28;20053;-88
2022/12/21 09:42:37;;;;;;;3.03;1.95;;;;;;;;;;5006327;28;20534;-89
2022/12/21 09:45:20;;;;;;;1.65;1.35;;;;;;;;;;5011917;28;20038;-87
2022/12/21 09:47:57;;;;;;;1.77;1.40;;;;;;;;;;4999732;28;20364;-85
2022/12/21 09:50:30;;;;;;;3.17;1.30;;;;;;;;;;5017006;28;20037;-89
2022/12/21 09:53:11;;;;;;;3.10;1.60;;;;;;;;;;5017049;28;20029;-87
2022/12/21 09:55:44;;;;;;;1.60;1.20;;;;;;;;;;4999786;28;20025;-88
2022/12/21 09:58:15;;;;;;;3.58;1.38;;;;;;;;;;5026843;28;20522;-90
2022/12/21 10:00:45;;;;;;;2.85;1.45;;;;;;;;;;5001808;28;20093;-89
2022/12/21 10:03:37;;;;;;;1.40;1.30;;;;;;;;;;5001444;28;20057;-88
2022/12/21 10:06:05;;;;;;;1.48;1.23;;;;;;;;;;5017272;28;20018;-89
2022/12/21 10:09:02;;;;;;;2.30;1.50;;;;;;;;;;5018133;28;20037;-89
2022/12/21 10:11:49;;;;;;;1.63;1.35;;;;;;;;;;5020443;28;20064;-88
2022/12/21 10:14:47;;;;;;;3.67;1.42;;;;;;;;;;5006427;28;20025;-88
2022/12/21 10:17:35;;;;;;;1.98;1.35;;;;;;;;;;4992652;28;20026;-86
2022/12/21 10:20:41;;;;;;;1.33;1.00;;;;;;;;;;5037698;28;20030;-86
2022/12/21 10:23:22;;;;;;;1.35;1.25;;;;;;;;;;4979757;28;20034;-86
2022/12/21 10:25:58;;;;;;;1.88;1.48;;;;;;;;;;4994237;28;20030;-85
2022/12/21 10:28:46;;;;;;;1.50;1.40;;;;;;;;;;4994173;28;20022;-89
2022/12/21 10:31:22;;;;;;;2.50;1.63;;;;;;;;;;5011274;28;20041;-87
2022/12/21 10:33:50;;;;;;;1.38;1.27;;;;;;;;;;5002146;28;20029;-87
2022/12/21 10:36:20;;;;;;;2.00;1.38;;;;;;;;;;5001831;28;20025;-87
2022/12/21 10:38:46;;;;;;;2.80;1.38;;;;;;;;;;5001313;28;20048;-87
2022/12/21 10:41:27;;;;;;;4.07;1.20;;;;;;;;;;5019498;28;20021;-87
2022/12/21 10:43:58;;;;;;;2.17;1.92;;;;;;;;;;5000881;28;20087;-88
2022/12/21 10:46:31;;;;;;;4.53;1.70;;;;;;;;;;5000974;28;20030;-87
2022/12/21 10:49:04;;;;;;;1.88;1.58;;;;;;;;;;4980545;28;20026;-86
2022/12/21 10:51:35;;;;;;;1.50;1.40;;;;;;;;;;4999274;28;20025;-88
2022/12/21 10:54:05;;;;;;;2.00;1.80;;;;;;;;;;5006998;28;20026;-86
2022/12/21 10:56:43;;;;;;;3.00;1.40;;;;;;;;;;4999110;28;20030;-86
2022/12/21 10:59:27;;;;;;;2.53;1.60;;;;;;;;;;4999370;28;20056;-88
2022/12/21 11:02:04;;;;;;;1.70;1.27;;;;;;;;;;4994498;28;20058;-89
2022/12/21 11:04:33;;;;;;;1.77;1.27;;;;;;;;;;4999050;28;20033;-89
2022/12/21 11:07:23;;;;;;;2.13;1.70;;;;;;;;;;5002536;28;20058;-90
2022/12/21 11:10:00;;;;;;;1.50;1.40;;;;;;;;;;5017972;28;20076;-90
2022/12/21 11:12:28;;;;;;;2.35;1.60;;;;;;;;;;5013285;28;20025;-89
2022/12/21 11:15:43;;;;;;;1.40;1.30;;;;;;;;;;5010627;28;20033;-91
2022/12/21 11:25:16;;;;;;;2.63;1.45;;;;;;;;;;5004709;22;20051;-87
2022/12/21 11:27:45;;;;;;;2.03;1.50;;;;;;;;;;5034475;28;20025;-87
2022/12/21 11:30:19;;;;;;;3.83;1.27;;;;;;;;;;5006607;28;20057;-87
2022/12/21 11:32:48;;;;;;;1.65;1.30;;;;;;;;;;4999366;28;20173;-87
2022/12/21 11:35:25;;;;;;;3.72;1.33;;;;;;;;;;5009682;28;20052;-85
2022/12/21 11:38:02;;;;;;;3.00;1.30;;;;;;;;;;5030698;28;20457;-86
2022/12/21 11:40:29;;;;;;;1.35;1.20;;;;;;;;;;5017418;28;20057;-85
2022/12/21 11:43:04;;;;;;;2.75;1.15;;;;;;;;;;5011175;28;20056;-86
2022/12/21 11:45:58;;;;;;;2.25;1.02;;;;;;;;;;5010371;28;20030;-86
2022/12/21 11:48:40;;;;;;;1.50;1.05;;;;;;;;;;5022244;28;20463;-85
2022/12/21 11:51:12;;;;;;;0.90;0.90;;;;;;;;;;5011445;28;20030;-86
2022/12/21 11:53:50;;;;;;;1.92;1.10;;;;;;;;;;5002184;28;20026;-86
2022/12/21 12:12:21;;;;;;;1.58;1.02;;;;;;;;;;5060398;23;19956;-84
2022/12/21 12:15:11;;;;;;;2.75;1.63;;;;;;;;;;5023568;28;20034;-85
2022/12/21 12:17:51;;;;;;;1.23;1.13;;;;;;;;;;5027037;28;20019;-85
2022/12/21 12:20:22;;;;;;;1.33;1.20;;;;;;;;;;5010310;28;20040;-84
2022/12/21 12:23:08;;;;;;;1.55;0.95;;;;;;;;;;5005101;28;20112;-82
2022/12/21 12:25:33;;;;;;;1.40;1.27;;;;;;;;;;5013274;28;20412;-85
2022/12/21 12:28:25;;;;;;;1.27;1.17;;;;;;;;;;5020083;28;20029;-84
2022/12/21 12:30:51;;;;;;;;;;;;;;;;;;5007532;28;20022;-85
2022/12/21 12:33:52;;;;;;;1.05;0.85;;;;;;;;;;5028219;28;19984;-85
2022/12/21 12:36:53;;;;;;;1.38;1.27;;;;;;;;;;5015194;28;20101;-85
2022/12/21 12:39:36;;;;;;;1.55;1.17;;;;;;;;;;5022649;28;20040;-82
2022/12/21 12:42:16;;;;;;;1.55;1.05;;;;;;;;;;5037919;28;20038;-84
2022/12/21 12:45:01;;;;;;;0.93;0.90;;;;;;;;;;5024286;28;20037;-83
2022/12/21 12:47:41;;;;;;;1.42;1.30;;;;;;;;;;5037196;28;20025;-87
2022/12/21 12:50:38;;;;;;;0.80;0.80;;;;;;;;;;5021857;28;20112;-83
2022/12/21 12:53:33;;;;;;;1.17;1.08;;;;;;;;;;5031403;28;20045;-85
2022/12/21 12:56:07;;;;;;;1.40;1.30;;;;;;;;;;5036377;28;20037;-84
2022/12/21 12:58:44;;;;;;;1.95;1.27;;;;;;;;;;5018493;28;20041;-85
2022/12/21 13:01:31;;;;;;;3.10;1.17;;;;;;;;;;5037263;28;20287;-86
2022/12/21 13:04:21;;;;;;;1.20;1.10;;;;;;;;;;5037998;28;20116;-85
2022/12/21 13:06:55;;;;;;;2.35;1.00;;;;;;;;;;5022884;28;20340;-86
2022/12/21 13:09:29;;;;;;;1.20;1.10;;;;;;;;;;5038497;28;20029;-83
2022/12/21 13:12:05;;;;;;;1.35;1.13;;;;;;;;;;5024340;28;20025;-83
2022/12/21 13:14:38;;;;;;;1.00;0.95;;;;;;;;;;5024161;28;20033;-83
2022/12/21 13:17:25;;;;;;;3.42;1.23;;;;;;;;;;5023184;28;20029;-83
2022/12/21 13:19:52;;;;;;;1.42;0.98;;;;;;;;;;5010705;28;20528;-83
2022/12/21 13:22:19;;;;;;;2.55;1.20;;;;;;;;;;5006925;28;20029;-85
2022/12/21 13:25:00;;;;;;;1.10;1.00;;;;;;;;;;5010171;28;20140;-83
2022/12/21 13:27:42;;;;;;;0.95;0.95;;;;;;;;;;5032088;28;20555;-84
2022/12/21 13:30:14;;;;;;;1.02;1.00;;;;;;;;;;5012224;28;20044;-84
2022/12/21 13:32:58;;;;;;;1.52;1.27;;;;;;;;;;5011381;28;20029;-85
2022/12/21 13:35:36;;;;;;;1.08;1.05;;;;;;;;;;5030879;28;20033;-83
2022/12/21 13:38:15;;;;;;;1.08;0.68;;;;;;;;;;5038433;28;20032;-85
2022/12/21 13:41:33;;;;;;;1.08;1.00;;;;;;;;;;5018269;28;20057;-83
2022/12/21 13:44:15;;;;;;;0.90;0.90;;;;;;;;;;5028214;28;20040;-83
2022/12/21 13:46:42;;;;;;;1.30;1.20;;;;;;;;;;5038647;28;20065;-83
2022/12/21 13:49:13;;;;;;;0.90;0.90;;;;;;;;;;5030168;28;20030;-85
2022/12/21 13:51:52;;;;;;;0.60;0.60;;;;;;;;;;5039664;28;20340;-84
2022/12/21 13:54:40;;;;;;;7.00;1.10;;;;;;;;;;5021745;28;20033;-83
2022/12/21 13:57:27;;;;;;;1.05;0.93;;;;;;;;;;5038040;28;20627;-84
2022/12/21 14:00:02;;;;;;;1.15;1.05;;;;;;;;;;5020098;28;20372;-83
2022/12/21 14:02:43;;;;;;;1.35;1.10;;;;;;;;;;5013824;28;20018;-85
2022/12/21 14:05:15;;;;;;;1.87;0.80;;;;;;;;;;5018591;28;20025;-85
2022/12/21 14:07:59;;;;;;;0.70;0.70;;;;;;;;;;5020661;28;20264;-85
2022/12/21 14:10:39;;;;;;;0.77;0.77;;;;;;;;;;5015727;28;20040;-85
2022/12/21 14:13:07;;;;;;;1.75;0.75;;;;;;;;;;5035493;28;20045;-85
2022/12/21 14:15:48;;;;;;;3.38;1.05;;;;;;;;;;5021621;28;20037;-83
2022/12/21 14:18:17;;;;;;;0.77;0.77;;;;;;;;;;5040569;28;20029;-86
2022/12/21 14:20:43;;;;;;;4.30;1.20;;;;;;;;;;5026823;28;20033;-85
2022/12/21 14:23:23;;;;;;;1.15;1.05;;;;;;;;;;5016975;28;20028;-83
2022/12/21 14:25:50;;;;;;;1.05;1.00;;;;;;;;;;5019864;28;20025;-85
2022/12/21 14:28:28;;;;;;;1.52;1.10;;;;;;;;;;5020573;28;20021;-85
2022/12/21 14:31:09;;;;;;;0.80;0.80;;;;;;;;;;5017055;28;20021;-85
2022/12/21 14:33:48;;;;;;;1.23;0.95;;;;;;;;;;5024500;28;20033;-85
2022/12/21 14:36:20;;;;;;;2.70;0.95;;;;;;;;;;5049006;28;20061;-85
2022/12/21 14:39:00;;;;;;;1.00;0.90;;;;;;;;;;5049391;28;20025;-86
2022/12/21 14:41:40;;;;;;;1.58;1.00;;;;;;;;;;5052374;28;20029;-85
2022/12/21 14:44:17;;;;;;;0.95;0.95;;;;;;;;;;5025336;28;20029;-85
2022/12/21 14:47:21;;;;;;;1.35;0.85;;;;;;;;;;5032282;28;20100;-85
2022/12/21 14:49:47;;;;;;;2.30;1.27;;;;;;;;;;5038156;28;20053;-85
2022/12/21 14:52:27;;;;;;;5.70;1.52;;;;;;;;;;5028340;28;20387;-85
2022/12/21 14:54:59;;;;;;;3.08;1.35;;;;;;;;;;5028504;28;20044;-85
2022/12/21 14:57:44;;;;;;;5.82;1.45;;;;;;;;;;5027928;28;20604;-86
2022/12/21 15:00:13;;;;;;;2.50;1.13;;;;;;;;;;5035798;28;20079;-85
2022/12/21 15:02:44;;;;;;;1.25;1.10;;;;;;;;;;5019249;28;20048;-85
2022/12/21 15:05:34;;;;;;;2.35;1.10;;;;;;;;;;5018140;28;20040;-88
2022/12/21 15:08:02;;;;;;;1.20;1.05;;;;;;;;;;5034610;28;20486;-84
2022/12/21 15:10:30;;;;;;;1.45;0.80;;;;;;;;;;5031277;28;20073;-85
2022/12/21 15:12:57;;;;;;;1.10;1.00;;;;;;;;;;5014618;28;20041;-85
2022/12/21 15:15:34;;;;;;;1.05;1.00;;;;;;;;;;5034728;28;20128;-84
2022/12/21 15:18:21;;;;;;;1.77;1.30;;;;;;;;;;5035011;28;20037;-84
2022/12/21 15:20:50;;;;;;;3.65;1.17;;;;;;;;;;5031520;28;20036;-85
2022/12/21 15:23:29;;;;;;;1.33;1.23;;;;;;;;;;5015011;28;20182;-83
2022/12/21 15:26:03;;;;;;;2.72;1.52;;;;;;;;;;5036843;28;20040;-84
2022/12/21 15:28:35;;;;;;;1.50;1.40;;;;;;;;;;5021530;28;20052;-84
2022/12/21 15:31:15;;;;;;;3.30;1.52;;;;;;;;;;5018077;28;20039;-84
2022/12/21 15:33:41;;;;;;;1.60;1.50;;;;;;;;;;5015379;28;20438;-84
2022/12/21 15:36:15;;;;;;;2.78;1.98;;;;;;;;;;5024097;28;20025;-85
2022/12/21 15:38:52;;;;;;;8.30;1.40;;;;;;;;;;5023035;28;20679;-84
2022/12/21 15:41:24;;;;;;;2.25;1.45;;;;;;;;;;5031864;28;20357;-84
2022/12/21 15:44:01;;;;;;;;;;;;;;;;;;5021118;28;20041;-85
2022/12/21 15:46:53;;;;;;;1.40;1.30;;;;;;;;;;5022363;28;19959;-83
2022/12/21 15:49:21;;;;;;;3.33;1.20;;;;;;;;;;5006471;28;20110;-83
2022/12/21 15:51:48;;;;;;;1.65;1.35;;;;;;;;;;5026593;28;20091;-82
2022/12/21 15:54:22;;;;;;;2.03;1.40;;;;;;;;;;5029236;28;20041;-85
2022/12/21 15:56:51;;;;;;;4.47;2.00;;;;;;;;;;5029498;28;20044;-86
2022/12/21 15:59:22;;;;;;;1.45;1.33;;;;;;;;;;5010585;28;20116;-83
2022/12/21 16:01:52;;;;;;;2.08;1.25;;;;;;;;;;5011968;28;20025;-84
2022/12/21 16:04:18;;;;;;;3.25;1.50;;;;;;;;;;5016528;28;20021;-83
2022/12/21 16:06:51;;;;;;;4.95;1.73;;;;;;;;;;5033203;28;20028;-87
2022/12/21 16:09:18;;;;;;;2.05;1.60;;;;;;;;;;5032947;28;20030;-85
2022/12/21 16:11:44;;;;;;;4.22;2.63;;;;;;;;;;5032337;28;20029;-84
2022/12/21 16:14:28;;;;;;;2.40;1.98;;;;;;;;;;5031917;28;21231;-85
2022/12/21 16:16:55;;;;;;;2.03;1.40;;;;;;;;;;5031237;28;20029;-83
2022/12/21 16:19:27;;;;;;;2.38;1.67;;;;;;;;;;5030566;28;20361;-85
2022/12/21 16:21:59;;;;;;;1.33;1.23;;;;;;;;;;5030793;28;20021;-84
2022/12/21 16:24:25;;;;;;;2.00;1.45;;;;;;;;;;5032028;28;20029;-84
2022/12/21 16:26:51;;;;;;;4.93;2.20;;;;;;;;;;5030685;28;20037;-83
2022/12/21 16:29:22;;;;;;;13.75;5.93;;;;;;;;;;5019068;28;20140;-83
2022/12/21 16:31:48;;;;;;;11.38;4.90;;;;;;;;;;5013686;28;20095;-83
2022/12/21 16:34:22;;;;;;;13.57;4.55;;;;;;;;;;5005097;28;20555;-83
2022/12/21 16:36:49;;;;;;;3.90;2.38;;;;;;;;;;5013688;28;20025;-84
2022/12/21 16:39:15;;;;;;;3.20;1.92;;;;;;;;;;5023478;28;20041;-85
2022/12/21 16:41:41;;;;;;;3.40;2.00;;;;;;;;;;5021044;28;20022;-84
2022/12/21 16:44:12;;;;;;;4.15;2.47;;;;;;;;;;5002214;28;20033;-84
2022/12/21 16:46:54;;;;;;;4.57;2.80;;;;;;;;;;5003863;28;20476;-85
2022/12/21 16:49:25;;;;;;;3.13;1.90;;;;;;;;;;5012396;28;20173;-85
2022/12/21 16:51:58;;;;;;;3.00;1.80;;;;;;;;;;5021915;28;20029;-84
2022/12/21 16:54:38;;;;;;;6.63;2.10;;;;;;;;;;5023857;28;20041;-84
2022/12/21 16:57:04;;;;;;;2.17;1.90;;;;;;;;;;5015623;28;20071;-84
2022/12/21 16:59:29;;;;;;;2.53;1.92;;;;;;;;;;5033229;28;20037;-83
2022/12/21 17:02:12;;;;;;;2.85;1.65;;;;;;;;;;5035527;28;20576;-85
2022/12/21 17:04:38;;;;;;;5.45;2.03;;;;;;;;;;5033182;28;20039;-84
2022/12/21 17:07:15;;;;;;;2.88;1.92;;;;;;;;;;5038766;28;20051;-85
2022/12/21 17:09:48;;;;;;;2.30;1.67;;;;;;;;;;5017624;28;20438;-84
2022/12/21 17:12:26;;;;;;;4.60;1.83;;;;;;;;;;5018073;28;20462;-84
2022/12/21 17:14:52;;;;;;;3.25;1.83;;;;;;;;;;5036105;28;20145;-85
2022/12/21 17:17:19;;;;;;;2.55;1.52;;;;;;;;;;5014508;28;20043;-84